sensor_id;sensor_type;location;lat;lon;timestamp;P1;durP1;ratioP1;P2;durP2;ratioP2
13471;SDS011;6808;49.444;11.034;2024-03-23T00:54:35;5.43;;;2.40;;
13471;SDS011;6808;49.444;11.034;2024-03-23T00:57:01;2.67;;;1.83;;
13471;SDS011;6808;49.444;11.034;2024-03-23T00:59:27;3.00;;;2.17;;
13471;SDS011;6808;49.444;11.034;2024-03-23T01:01:53;3.70;;;2.17;;
13471;SDS011;6808;49.444;11.034;2024-03-23T01:04:19;2.37;;;1.97;;
13471;SDS011;6808;49.444;11.034;2024-03-23T01:06:45;2.67;;;2.03;;
13471;SDS011;6808;49.444;11.034;2024-03-23T01:09:11;3.03;;;2.17;;
13471;SDS011;6808;49.444;11.034;2024-03-23T01:11:36;2.87;;;2.50;;
13471;SDS011;6808;49.444;11.034;2024-03-23T01:14:02;2.80;;;2.10;;
13471;SDS011;6808;49.444;11.034;2024-03-23T01:16:28;2.87;;;2.23;;
13471;SDS011;6808;49.444;11.034;2024-03-23T01:18:54;2.40;;;2.10;;
13471;SDS011;6808;49.444;11.034;2024-03-23T01:21:19;3.53;;;2.20;;
13471;SDS011;6808;49.444;11.034;2024-03-23T01:23:45;2.87;;;2.50;;
13471;SDS011;6808;49.444;11.034;2024-03-23T01:26:10;4.33;;;2.27;;
13471;SDS011;6808;49.444;11.034;2024-03-23T01:28:36;2.57;;;1.83;;
13471;SDS011;6808;49.444;11.034;2024-03-23T01:31:02;3.80;;;2.70;;
13471;SDS011;6808;49.444;11.034;2024-03-23T01:33:27;2.87;;;2.40;;
13471;SDS011;6808;49.444;11.034;2024-03-23T01:35:53;2.57;;;2.00;;
13471;SDS011;6808;49.444;11.034;2024-03-23T01:38:19;2.43;;;2.13;;
13471;SDS011;6808;49.444;11.034;2024-03-23T01:40:44;3.53;;;2.60;;
13471;SDS011;6808;49.444;11.034;2024-03-23T01:43:10;6.93;;;2.50;;
13471;SDS011;6808;49.444;11.034;2024-03-23T01:45:35;4.47;;;2.27;;
13471;SDS011;6808;49.444;11.034;2024-03-23T01:48:01;2.83;;;2.40;;
13471;SDS011;6808;49.444;11.034;2024-03-23T01:50:28;2.40;;;2.13;;
13471;SDS011;6808;49.444;11.034;2024-03-23T01:52:55;2.63;;;2.40;;
13471;SDS011;6808;49.444;11.034;2024-03-23T01:55:21;2.17;;;1.80;;
13471;SDS011;6808;49.444;11.034;2024-03-23T01:57:47;3.73;;;2.53;;
13471;SDS011;6808;49.444;11.034;2024-03-23T02:00:12;3.07;;;2.20;;
13471;SDS011;6808;49.444;11.034;2024-03-23T02:02:42;2.50;;;2.10;;
13471;SDS011;6808;49.444;11.034;2024-03-23T02:05:09;3.37;;;2.33;;
13471;SDS011;6808;49.444;11.034;2024-03-23T02:07:34;3.73;;;2.27;;
13471;SDS011;6808;49.444;11.034;2024-03-23T02:10:00;3.83;;;2.63;;
13471;SDS011;6808;49.444;11.034;2024-03-23T02:12:26;3.77;;;2.80;;
13471;SDS011;6808;49.444;11.034;2024-03-23T02:14:52;2.27;;;2.00;;
13471;SDS011;6808;49.444;11.034;2024-03-23T02:17:17;3.07;;;2.23;;
13471;SDS011;6808;49.444;11.034;2024-03-23T02:19:43;2.60;;;2.30;;
13471;SDS011;6808;49.444;11.034;2024-03-23T02:22:09;2.73;;;2.47;;
13471;SDS011;6808;49.444;11.034;2024-03-23T02:24:36;3.93;;;2.17;;
13471;SDS011;6808;49.444;11.034;2024-03-23T02:27:02;3.90;;;2.27;;
13471;SDS011;6808;49.444;11.034;2024-03-23T02:29:28;2.20;;;2.00;;
13471;SDS011;6808;49.444;11.034;2024-03-23T02:31:53;2.80;;;2.50;;
13471;SDS011;6808;49.444;11.034;2024-03-23T02:34:19;2.70;;;2.00;;
13471;SDS011;6808;49.444;11.034;2024-03-23T02:36:44;6.50;;;2.50;;
13471;SDS011;6808;49.444;11.034;2024-03-23T02:39:10;3.70;;;2.20;;
13471;SDS011;6808;49.444;11.034;2024-03-23T02:41:36;2.57;;;2.33;;
13471;SDS011;6808;49.444;11.034;2024-03-23T02:44:02;2.50;;;2.30;;
13471;SDS011;6808;49.444;11.034;2024-03-23T02:46:27;2.50;;;2.30;;
13471;SDS011;6808;49.444;11.034;2024-03-23T02:48:53;2.63;;;2.13;;
13471;SDS011;6808;49.444;11.034;2024-03-23T02:51:18;3.10;;;2.03;;
13471;SDS011;6808;49.444;11.034;2024-03-23T02:53:44;5.00;;;2.13;;
13471;SDS011;6808;49.444;11.034;2024-03-23T02:56:09;3.00;;;2.43;;
13471;SDS011;6808;49.444;11.034;2024-03-23T02:58:40;4.80;;;2.67;;
13471;SDS011;6808;49.444;11.034;2024-03-23T03:01:06;2.40;;;2.17;;
13471;SDS011;6808;49.444;11.034;2024-03-23T03:03:32;3.23;;;2.47;;
13471;SDS011;6808;49.444;11.034;2024-03-23T03:05:57;2.00;;;1.73;;
13471;SDS011;6808;49.444;11.034;2024-03-23T03:08:23;3.37;;;2.40;;
13471;SDS011;6808;49.444;11.034;2024-03-23T03:10:48;2.30;;;2.10;;
13471;SDS011;6808;49.444;11.034;2024-03-23T03:13:14;3.03;;;2.23;;
13471;SDS011;6808;49.444;11.034;2024-03-23T03:15:43;2.73;;;2.03;;
13471;SDS011;6808;49.444;11.034;2024-03-23T03:18:09;3.10;;;2.50;;
13471;SDS011;6808;49.444;11.034;2024-03-23T03:20:37;2.40;;;2.20;;
13471;SDS011;6808;49.444;11.034;2024-03-23T03:23:04;3.60;;;2.50;;
13471;SDS011;6808;49.444;11.034;2024-03-23T03:25:30;4.43;;;2.27;;
13471;SDS011;6808;49.444;11.034;2024-03-23T03:27:55;3.67;;;2.47;;
13471;SDS011;6808;49.444;11.034;2024-03-23T03:30:21;2.87;;;2.37;;
13471;SDS011;6808;49.444;11.034;2024-03-23T03:32:46;2.80;;;1.80;;
13471;SDS011;6808;49.444;11.034;2024-03-23T03:35:12;2.47;;;2.20;;
13471;SDS011;6808;49.444;11.034;2024-03-23T03:37:37;3.17;;;2.37;;
13471;SDS011;6808;49.444;11.034;2024-03-23T03:40:03;2.10;;;1.90;;
13471;SDS011;6808;49.444;11.034;2024-03-23T03:42:29;3.37;;;2.13;;
13471;SDS011;6808;49.444;11.034;2024-03-23T03:44:54;3.53;;;2.30;;
13471;SDS011;6808;49.444;11.034;2024-03-23T03:47:20;3.40;;;2.50;;
13471;SDS011;6808;49.444;11.034;2024-03-23T03:49:47;3.23;;;2.40;;
13471;SDS011;6808;49.444;11.034;2024-03-23T03:52:12;2.57;;;1.93;;
13471;SDS011;6808;49.444;11.034;2024-03-23T03:54:38;2.60;;;2.03;;
13471;SDS011;6808;49.444;11.034;2024-03-23T03:57:03;3.77;;;2.10;;
13471;SDS011;6808;49.444;11.034;2024-03-23T03:59:29;3.30;;;1.97;;
13471;SDS011;6808;49.444;11.034;2024-03-23T04:01:54;2.20;;;1.97;;
13471;SDS011;6808;49.444;11.034;2024-03-23T04:04:20;3.07;;;2.10;;
13471;SDS011;6808;49.444;11.034;2024-03-23T04:06:47;2.97;;;1.83;;
13471;SDS011;6808;49.444;11.034;2024-03-23T04:09:13;3.23;;;2.33;;
13471;SDS011;6808;49.444;11.034;2024-03-23T04:11:38;3.37;;;2.00;;
13471;SDS011;6808;49.444;11.034;2024-03-23T04:14:04;2.50;;;2.30;;
13471;SDS011;6808;49.444;11.034;2024-03-23T04:16:31;3.17;;;2.47;;
13471;SDS011;6808;49.444;11.034;2024-03-23T04:18:59;6.27;;;2.20;;
13471;SDS011;6808;49.444;11.034;2024-03-23T04:21:25;2.00;;;1.77;;
13471;SDS011;6808;49.444;11.034;2024-03-23T04:23:50;3.47;;;2.27;;
13471;SDS011;6808;49.444;11.034;2024-03-23T04:26:17;2.70;;;2.10;;
13471;SDS011;6808;49.444;11.034;2024-03-23T04:28:42;2.80;;;2.27;;
13471;SDS011;6808;49.444;11.034;2024-03-23T04:31:08;2.73;;;2.17;;
13471;SDS011;6808;49.444;11.034;2024-03-23T04:33:34;2.77;;;2.10;;
13471;SDS011;6808;49.444;11.034;2024-03-23T04:35:59;2.70;;;2.00;;
13471;SDS011;6808;49.444;11.034;2024-03-23T04:38:25;2.57;;;2.30;;
13471;SDS011;6808;49.444;11.034;2024-03-23T04:40:57;2.63;;;2.03;;
13471;SDS011;6808;49.444;11.034;2024-03-23T04:43:23;2.87;;;2.57;;
13471;SDS011;6808;49.444;11.034;2024-03-23T04:45:49;2.87;;;2.50;;
13471;SDS011;6808;49.444;11.034;2024-03-23T04:48:14;3.07;;;2.33;;
13471;SDS011;6808;49.444;11.034;2024-03-23T04:50:40;2.43;;;1.97;;
13471;SDS011;6808;49.444;11.034;2024-03-23T04:53:06;1.90;;;1.80;;
13471;SDS011;6808;49.444;11.034;2024-03-23T04:55:32;2.40;;;1.90;;
13471;SDS011;6808;49.444;11.034;2024-03-23T04:57:57;2.57;;;2.37;;
13471;SDS011;6808;49.444;11.034;2024-03-23T05:00:23;3.37;;;2.33;;
13471;SDS011;6808;49.444;11.034;2024-03-23T05:02:49;2.10;;;1.90;;
13471;SDS011;6808;49.444;11.034;2024-03-23T05:05:15;3.70;;;2.10;;
13471;SDS011;6808;49.444;11.034;2024-03-23T05:07:40;2.83;;;2.40;;
13471;SDS011;6808;49.444;11.034;2024-03-23T05:10:06;3.33;;;2.07;;
13471;SDS011;6808;49.444;11.034;2024-03-23T05:12:36;2.53;;;2.20;;
13471;SDS011;6808;49.444;11.034;2024-03-23T05:15:03;2.50;;;2.20;;
13471;SDS011;6808;49.444;11.034;2024-03-23T05:17:29;2.00;;;1.70;;
13471;SDS011;6808;49.444;11.034;2024-03-23T05:19:56;2.93;;;2.47;;
13471;SDS011;6808;49.444;11.034;2024-03-23T05:22:22;2.97;;;2.23;;
13471;SDS011;6808;49.444;11.034;2024-03-23T05:24:47;2.03;;;1.83;;
13471;SDS011;6808;49.444;11.034;2024-03-23T05:27:13;2.53;;;2.33;;
13471;SDS011;6808;49.444;11.034;2024-03-23T05:29:38;2.03;;;1.83;;
13471;SDS011;6808;49.444;11.034;2024-03-23T05:32:04;2.30;;;2.10;;
13471;SDS011;6808;49.444;11.034;2024-03-23T05:34:29;2.57;;;2.27;;
13471;SDS011;6808;49.444;11.034;2024-03-23T05:36:55;2.27;;;1.87;;
13471;SDS011;6808;49.444;11.034;2024-03-23T05:39:20;2.37;;;2.00;;
13471;SDS011;6808;49.444;11.034;2024-03-23T05:41:47;1.77;;;1.50;;
13471;SDS011;6808;49.444;11.034;2024-03-23T05:44:13;1.50;;;1.40;;
13471;SDS011;6808;49.444;11.034;2024-03-23T05:46:40;2.90;;;2.03;;
13471;SDS011;6808;49.444;11.034;2024-03-23T05:49:05;5.37;;;2.43;;
13471;SDS011;6808;49.444;11.034;2024-03-23T05:51:31;2.90;;;2.23;;
13471;SDS011;6808;49.444;11.034;2024-03-23T05:53:57;1.43;;;1.33;;
13471;SDS011;6808;49.444;11.034;2024-03-23T05:56:23;2.77;;;1.70;;
13471;SDS011;6808;49.444;11.034;2024-03-23T05:58:48;1.60;;;1.30;;
13471;SDS011;6808;49.444;11.034;2024-03-23T06:01:14;1.50;;;1.30;;
13471;SDS011;6808;49.444;11.034;2024-03-23T06:03:39;1.70;;;1.60;;
13471;SDS011;6808;49.444;11.034;2024-03-23T06:06:05;1.30;;;1.20;;
13471;SDS011;6808;49.444;11.034;2024-03-23T06:08:35;1.80;;;1.70;;
13471;SDS011;6808;49.444;11.034;2024-03-23T06:11:01;1.50;;;1.40;;
13471;SDS011;6808;49.444;11.034;2024-03-23T06:13:26;2.23;;;1.60;;
13471;SDS011;6808;49.444;11.034;2024-03-23T06:15:54;1.60;;;1.50;;
13471;SDS011;6808;49.444;11.034;2024-03-23T06:18:20;4.27;;;1.97;;
13471;SDS011;6808;49.444;11.034;2024-03-23T06:20:46;2.30;;;2.10;;
13471;SDS011;6808;49.444;11.034;2024-03-23T06:23:11;2.57;;;2.03;;
13471;SDS011;6808;49.444;11.034;2024-03-23T06:25:37;2.07;;;1.63;;
13471;SDS011;6808;49.444;11.034;2024-03-23T06:28:03;2.83;;;1.80;;
13471;SDS011;6808;49.444;11.034;2024-03-23T06:30:29;3.93;;;2.00;;
13471;SDS011;6808;49.444;11.034;2024-03-23T06:32:56;5.17;;;2.63;;
13471;SDS011;6808;49.444;11.034;2024-03-23T06:35:22;2.40;;;2.10;;
13471;SDS011;6808;49.444;11.034;2024-03-23T06:37:48;2.80;;;2.33;;
13471;SDS011;6808;49.444;11.034;2024-03-23T06:40:14;2.73;;;2.03;;
13471;SDS011;6808;49.444;11.034;2024-03-23T06:42:39;3.03;;;2.20;;
13471;SDS011;6808;49.444;11.034;2024-03-23T06:45:05;4.17;;;2.50;;
13471;SDS011;6808;49.444;11.034;2024-03-23T06:47:31;9.40;;;3.63;;
13471;SDS011;6808;49.444;11.034;2024-03-23T06:49:57;2.97;;;2.67;;
13471;SDS011;6808;49.444;11.034;2024-03-23T06:52:26;4.10;;;2.63;;
13471;SDS011;6808;49.444;11.034;2024-03-23T06:54:52;2.40;;;2.20;;
13471;SDS011;6808;49.444;11.034;2024-03-23T06:57:18;2.87;;;2.00;;
13471;SDS011;6808;49.444;11.034;2024-03-23T06:59:43;3.20;;;2.37;;
13471;SDS011;6808;49.444;11.034;2024-03-23T07:02:09;3.17;;;2.57;;
13471;SDS011;6808;49.444;11.034;2024-03-23T07:04:35;2.80;;;2.20;;
13471;SDS011;6808;49.444;11.034;2024-03-23T07:07:01;2.10;;;1.80;;
13471;SDS011;6808;49.444;11.034;2024-03-23T07:09:28;3.53;;;2.30;;
13471;SDS011;6808;49.444;11.034;2024-03-23T07:11:54;3.20;;;2.30;;
13471;SDS011;6808;49.444;11.034;2024-03-23T07:14:22;6.27;;;2.40;;
13471;SDS011;6808;49.444;11.034;2024-03-23T07:16:48;2.77;;;2.20;;
13471;SDS011;6808;49.444;11.034;2024-03-23T07:19:17;2.87;;;2.17;;
13471;SDS011;6808;49.444;11.034;2024-03-23T07:21:43;1.93;;;1.80;;
13471;SDS011;6808;49.444;11.034;2024-03-23T07:24:09;2.53;;;2.03;;
13471;SDS011;6808;49.444;11.034;2024-03-23T07:26:35;3.17;;;2.10;;
13471;SDS011;6808;49.444;11.034;2024-03-23T07:29:01;3.70;;;1.90;;
13471;SDS011;6808;49.444;11.034;2024-03-23T07:31:27;2.30;;;2.03;;
13471;SDS011;6808;49.444;11.034;2024-03-23T07:33:52;2.40;;;2.20;;
13471;SDS011;6808;49.444;11.034;2024-03-23T07:36:18;2.40;;;1.80;;
13471;SDS011;6808;49.444;11.034;2024-03-23T07:38:43;1.50;;;1.40;;
13471;SDS011;6808;49.444;11.034;2024-03-23T07:41:14;2.53;;;2.00;;
13471;SDS011;6808;49.444;11.034;2024-03-23T07:43:44;2.43;;;1.20;;
13471;SDS011;6808;49.444;11.034;2024-03-23T07:46:10;2.13;;;1.50;;
13471;SDS011;6808;49.444;11.034;2024-03-23T07:48:39;2.37;;;1.93;;
13471;SDS011;6808;49.444;11.034;2024-03-23T07:51:08;2.13;;;1.93;;
13471;SDS011;6808;49.444;11.034;2024-03-23T07:53:36;2.60;;;1.83;;
13471;SDS011;6808;49.444;11.034;2024-03-23T07:56:06;2.40;;;1.70;;
13471;SDS011;6808;49.444;11.034;2024-03-23T07:58:35;2.37;;;1.50;;
13471;SDS011;6808;49.444;11.034;2024-03-23T08:01:05;3.03;;;2.20;;
13471;SDS011;6808;49.444;11.034;2024-03-23T08:03:38;2.17;;;1.87;;
13471;SDS011;6808;49.444;11.034;2024-03-23T08:06:09;3.50;;;1.93;;
13471;SDS011;6808;49.444;11.034;2024-03-23T08:08:37;4.13;;;1.80;;
13471;SDS011;6808;49.444;11.034;2024-03-23T08:11:03;2.40;;;1.47;;
13471;SDS011;6808;49.444;11.034;2024-03-23T08:13:29;1.73;;;1.60;;
13471;SDS011;6808;49.444;11.034;2024-03-23T08:15:59;3.80;;;2.03;;
13471;SDS011;6808;49.444;11.034;2024-03-23T08:18:26;1.63;;;1.50;;
13471;SDS011;6808;49.444;11.034;2024-03-23T08:20:55;2.63;;;1.80;;
13471;SDS011;6808;49.444;11.034;2024-03-23T08:23:25;1.60;;;1.30;;
13471;SDS011;6808;49.444;11.034;2024-03-23T08:25:52;1.30;;;1.20;;
13471;SDS011;6808;49.444;11.034;2024-03-23T08:28:23;0.80;;;0.67;;
13471;SDS011;6808;49.444;11.034;2024-03-23T08:30:48;1.33;;;1.03;;
13471;SDS011;6808;49.444;11.034;2024-03-23T08:33:14;0.90;;;0.90;;
13471;SDS011;6808;49.444;11.034;2024-03-23T08:35:41;0.80;;;0.70;;
13471;SDS011;6808;49.444;11.034;2024-03-23T08:38:07;0.63;;;0.63;;
13471;SDS011;6808;49.444;11.034;2024-03-23T08:40:33;0.93;;;0.87;;
13471;SDS011;6808;49.444;11.034;2024-03-23T08:42:58;0.87;;;0.83;;
13471;SDS011;6808;49.444;11.034;2024-03-23T08:45:24;0.93;;;0.77;;
13471;SDS011;6808;49.444;11.034;2024-03-23T08:47:51;1.33;;;0.93;;
13471;SDS011;6808;49.444;11.034;2024-03-23T08:50:16;0.80;;;0.80;;
13471;SDS011;6808;49.444;11.034;2024-03-23T08:52:42;1.00;;;0.80;;
13471;SDS011;6808;49.444;11.034;2024-03-23T08:55:08;0.80;;;0.80;;
13471;SDS011;6808;49.444;11.034;2024-03-23T08:57:34;0.70;;;0.60;;
13471;SDS011;6808;49.444;11.034;2024-03-23T09:00:01;0.80;;;0.77;;
13471;SDS011;6808;49.444;11.034;2024-03-23T09:02:27;0.63;;;0.63;;
13471;SDS011;6808;49.444;11.034;2024-03-23T09:04:53;0.83;;;0.57;;
13471;SDS011;6808;49.444;11.034;2024-03-23T09:07:18;0.70;;;0.70;;
13471;SDS011;6808;49.444;11.034;2024-03-23T09:09:44;0.60;;;0.50;;
13471;SDS011;6808;49.444;11.034;2024-03-23T09:12:09;1.70;;;0.30;;
13471;SDS011;6808;49.444;11.034;2024-03-23T09:14:35;0.63;;;0.63;;
13471;SDS011;6808;49.444;11.034;2024-03-23T09:17:00;0.70;;;0.37;;
13471;SDS011;6808;49.444;11.034;2024-03-23T09:19:29;9.57;;;5.80;;
13471;SDS011;6808;49.444;11.034;2024-03-23T09:21:55;1.20;;;1.00;;
13471;SDS011;6808;49.444;11.034;2024-03-23T09:24:21;0.47;;;0.47;;
13471;SDS011;6808;49.444;11.034;2024-03-23T09:26:46;0.20;;;0.20;;
13471;SDS011;6808;49.444;11.034;2024-03-23T09:29:12;0.40;;;0.40;;
13471;SDS011;6808;49.444;11.034;2024-03-23T09:31:39;0.70;;;0.70;;
13471;SDS011;6808;49.444;11.034;2024-03-23T09:34:05;0.53;;;0.53;;
13471;SDS011;6808;49.444;11.034;2024-03-23T09:36:31;0.50;;;0.50;;
13471;SDS011;6808;49.444;11.034;2024-03-23T09:38:56;0.20;;;0.20;;
13471;SDS011;6808;49.444;11.034;2024-03-23T09:41:22;0.20;;;0.20;;
13471;SDS011;6808;49.444;11.034;2024-03-23T09:43:48;0.20;;;0.20;;
13471;SDS011;6808;49.444;11.034;2024-03-23T09:46:14;0.30;;;0.30;;
13471;SDS011;6808;49.444;11.034;2024-03-23T09:48:40;0.20;;;0.20;;
13471;SDS011;6808;49.444;11.034;2024-03-23T09:51:08;1.10;;;1.00;;
13471;SDS011;6808;49.444;11.034;2024-03-23T09:53:34;0.53;;;0.43;;
13471;SDS011;6808;49.444;11.034;2024-03-23T09:56:00;1.67;;;1.30;;
13471;SDS011;6808;49.444;11.034;2024-03-23T09:58:25;0.50;;;0.50;;
13471;SDS011;6808;49.444;11.034;2024-03-23T10:00:51;2.27;;;0.40;;
13471;SDS011;6808;49.444;11.034;2024-03-23T10:03:17;5.80;;;3.77;;
13471;SDS011;6808;49.444;11.034;2024-03-23T10:05:42;1.27;;;1.17;;
13471;SDS011;6808;49.444;11.034;2024-03-23T10:10:43;1.17;;;0.40;;
13471;SDS011;6808;49.444;11.034;2024-03-23T10:13:10;0.40;;;0.40;;
13471;SDS011;6808;49.444;11.034;2024-03-23T10:15:38;0.10;;;0.10;;
13471;SDS011;6808;49.444;11.034;2024-03-23T10:18:22;0.37;;;0.37;;
13471;SDS011;6808;49.444;11.034;2024-03-23T10:20:50;0.93;;;0.40;;
13471;SDS011;6808;49.444;11.034;2024-03-23T10:23:31;0.30;;;0.30;;
13471;SDS011;6808;49.444;11.034;2024-03-23T10:31:30;0.70;;;0.50;;
13471;SDS011;6808;49.444;11.034;2024-03-23T10:33:56;9.37;;;5.97;;
13471;SDS011;6808;49.444;11.034;2024-03-23T10:36:23;2.20;;;1.67;;
13471;SDS011;6808;49.444;11.034;2024-03-23T10:38:50;0.30;;;0.30;;
13471;SDS011;6808;49.444;11.034;2024-03-23T10:41:17;0.43;;;0.43;;
13471;SDS011;6808;49.444;11.034;2024-03-23T10:43:44;0.50;;;0.50;;
13471;SDS011;6808;49.444;11.034;2024-03-23T10:46:11;0.67;;;0.43;;
13471;SDS011;6808;49.444;11.034;2024-03-23T10:48:37;0.40;;;0.40;;
13471;SDS011;6808;49.444;11.034;2024-03-23T10:51:03;0.67;;;0.50;;
13471;SDS011;6808;49.444;11.034;2024-03-23T10:53:32;0.43;;;0.43;;
13471;SDS011;6808;49.444;11.034;2024-03-23T10:55:59;0.40;;;0.40;;
13471;SDS011;6808;49.444;11.034;2024-03-23T10:58:31;0.43;;;0.43;;
13471;SDS011;6808;49.444;11.034;2024-03-23T11:01:04;1.43;;;0.70;;
13471;SDS011;6808;49.444;11.034;2024-03-23T11:03:30;0.60;;;0.60;;
13471;SDS011;6808;49.444;11.034;2024-03-23T11:06:02;0.50;;;0.50;;
13471;SDS011;6808;49.444;11.034;2024-03-23T11:08:32;0.50;;;0.50;;
13471;SDS011;6808;49.444;11.034;2024-03-23T11:11:14;0.67;;;0.60;;
13471;SDS011;6808;49.444;11.034;2024-03-23T11:13:44;0.73;;;0.73;;
13471;SDS011;6808;49.444;11.034;2024-03-23T11:16:13;0.50;;;0.50;;
13471;SDS011;6808;49.444;11.034;2024-03-23T11:18:41;1.57;;;0.67;;
13471;SDS011;6808;49.444;11.034;2024-03-23T11:21:08;0.73;;;0.70;;
13471;SDS011;6808;49.444;11.034;2024-03-23T11:23:34;2.97;;;0.80;;
13471;SDS011;6808;49.444;11.034;2024-03-23T11:26:00;0.70;;;0.70;;
13471;SDS011;6808;49.444;11.034;2024-03-23T11:28:25;0.47;;;0.47;;
13471;SDS011;6808;49.444;11.034;2024-03-23T11:30:51;3.30;;;1.23;;
13471;SDS011;6808;49.444;11.034;2024-03-23T11:33:17;0.53;;;0.53;;
13471;SDS011;6808;49.444;11.034;2024-03-23T11:35:43;0.87;;;0.83;;
13471;SDS011;6808;49.444;11.034;2024-03-23T11:40:50;1.03;;;0.93;;
13471;SDS011;6808;49.444;11.034;2024-03-23T11:43:16;1.03;;;0.60;;
13471;SDS011;6808;49.444;11.034;2024-03-23T11:45:44;0.80;;;0.80;;
13471;SDS011;6808;49.444;11.034;2024-03-23T11:50:43;0.70;;;0.70;;
13471;SDS011;6808;49.444;11.034;2024-03-23T11:53:13;0.80;;;0.80;;
13471;SDS011;6808;49.444;11.034;2024-03-23T11:55:44;1.13;;;0.60;;
13471;SDS011;6808;49.444;11.034;2024-03-23T11:58:15;0.70;;;0.70;;
13471;SDS011;6808;49.444;11.034;2024-03-23T12:00:50;0.87;;;0.73;;
13471;SDS011;6808;49.444;11.034;2024-03-23T12:03:23;0.50;;;0.50;;
13471;SDS011;6808;49.444;11.034;2024-03-23T12:05:54;1.13;;;0.93;;
13471;SDS011;6808;49.444;11.034;2024-03-23T12:08:24;1.70;;;0.87;;
13471;SDS011;6808;49.444;11.034;2024-03-23T12:10:53;1.43;;;0.80;;
13471;SDS011;6808;49.444;11.034;2024-03-23T12:13:32;1.20;;;0.80;;
13471;SDS011;6808;49.444;11.034;2024-03-23T12:16:11;1.43;;;1.10;;
13471;SDS011;6808;49.444;11.034;2024-03-23T12:18:46;0.90;;;0.60;;
13471;SDS011;6808;49.444;11.034;2024-03-23T12:21:16;0.47;;;0.47;;
13471;SDS011;6808;49.444;11.034;2024-03-23T12:23:42;1.47;;;1.03;;
13471;SDS011;6808;49.444;11.034;2024-03-23T12:26:11;1.00;;;0.90;;
13471;SDS011;6808;49.444;11.034;2024-03-23T12:28:48;1.17;;;0.70;;
13471;SDS011;6808;49.444;11.034;2024-03-23T12:31:22;1.17;;;1.00;;
13471;SDS011;6808;49.444;11.034;2024-03-23T12:33:47;1.03;;;0.93;;
13471;SDS011;6808;49.444;11.034;2024-03-23T12:36:13;1.20;;;0.87;;
13471;SDS011;6808;49.444;11.034;2024-03-23T12:38:41;0.70;;;0.70;;
13471;SDS011;6808;49.444;11.034;2024-03-23T12:41:08;0.80;;;0.80;;
13471;SDS011;6808;49.444;11.034;2024-03-23T12:43:35;2.03;;;1.10;;
13471;SDS011;6808;49.444;11.034;2024-03-23T12:46:02;3.03;;;0.73;;
13471;SDS011;6808;49.444;11.034;2024-03-23T12:48:28;3.27;;;1.17;;
13471;SDS011;6808;49.444;11.034;2024-03-23T12:50:57;1.30;;;1.20;;
13471;SDS011;6808;49.444;11.034;2024-03-23T12:53:22;1.10;;;1.00;;
13471;SDS011;6808;49.444;11.034;2024-03-23T12:55:48;1.97;;;1.20;;
13471;SDS011;6808;49.444;11.034;2024-03-23T12:58:13;1.40;;;1.30;;
13471;SDS011;6808;49.444;11.034;2024-03-23T13:00:39;1.13;;;1.00;;
13471;SDS011;6808;49.444;11.034;2024-03-23T13:03:04;1.47;;;0.93;;
13471;SDS011;6808;49.444;11.034;2024-03-23T13:05:30;1.67;;;1.20;;
13471;SDS011;6808;49.444;11.034;2024-03-23T13:07:56;1.10;;;0.90;;
13471;SDS011;6808;49.444;11.034;2024-03-23T13:10:21;2.27;;;1.20;;
13471;SDS011;6808;49.444;11.034;2024-03-23T13:12:47;1.47;;;1.00;;
13471;SDS011;6808;49.444;11.034;2024-03-23T13:15:12;1.20;;;1.10;;
13471;SDS011;6808;49.444;11.034;2024-03-23T13:17:41;2.47;;;0.80;;
13471;SDS011;6808;49.444;11.034;2024-03-23T13:20:09;2.77;;;1.10;;
13471;SDS011;6808;49.444;11.034;2024-03-23T13:22:47;1.00;;;0.90;;
13471;SDS011;6808;49.444;11.034;2024-03-23T13:25:13;1.00;;;0.80;;
13471;SDS011;6808;49.444;11.034;2024-03-23T13:27:39;0.80;;;0.80;;
13471;SDS011;6808;49.444;11.034;2024-03-23T13:30:12;1.10;;;1.00;;
13471;SDS011;6808;49.444;11.034;2024-03-23T13:32:40;1.27;;;1.17;;
13471;SDS011;6808;49.444;11.034;2024-03-23T13:35:05;1.43;;;0.90;;
13471;SDS011;6808;49.444;11.034;2024-03-23T13:37:31;0.77;;;0.77;;
13471;SDS011;6808;49.444;11.034;2024-03-23T13:39:57;0.80;;;0.80;;
13471;SDS011;6808;49.444;11.034;2024-03-23T13:42:22;1.40;;;0.90;;
13471;SDS011;6808;49.444;11.034;2024-03-23T13:44:50;3.57;;;1.00;;
13471;SDS011;6808;49.444;11.034;2024-03-23T13:47:16;1.80;;;1.00;;
13471;SDS011;6808;49.444;11.034;2024-03-23T13:49:41;1.63;;;1.17;;
13471;SDS011;6808;49.444;11.034;2024-03-23T13:52:07;2.00;;;1.07;;
13471;SDS011;6808;49.444;11.034;2024-03-23T13:54:33;1.90;;;1.20;;
13471;SDS011;6808;49.444;11.034;2024-03-23T13:56:58;1.33;;;1.23;;
13471;SDS011;6808;49.444;11.034;2024-03-23T13:59:24;1.70;;;1.10;;
13471;SDS011;6808;49.444;11.034;2024-03-23T14:01:49;1.20;;;1.10;;
13471;SDS011;6808;49.444;11.034;2024-03-23T14:04:16;0.87;;;0.87;;
13471;SDS011;6808;49.444;11.034;2024-03-23T14:06:42;1.20;;;1.00;;
13471;SDS011;6808;49.444;11.034;2024-03-23T14:09:10;0.90;;;0.80;;
13471;SDS011;6808;49.444;11.034;2024-03-23T14:11:36;0.80;;;0.80;;
13471;SDS011;6808;49.444;11.034;2024-03-23T14:14:02;1.10;;;1.00;;
13471;SDS011;6808;49.444;11.034;2024-03-23T14:16:28;1.07;;;0.97;;
13471;SDS011;6808;49.444;11.034;2024-03-23T14:18:58;0.80;;;0.80;;
13471;SDS011;6808;49.444;11.034;2024-03-23T14:21:23;1.93;;;0.90;;
13471;SDS011;6808;49.444;11.034;2024-03-23T14:23:55;1.63;;;1.00;;
13471;SDS011;6808;49.444;11.034;2024-03-23T14:26:21;1.03;;;0.70;;
13471;SDS011;6808;49.444;11.034;2024-03-23T14:28:46;0.77;;;0.73;;
13471;SDS011;6808;49.444;11.034;2024-03-23T14:31:12;1.00;;;0.90;;
13471;SDS011;6808;49.444;11.034;2024-03-23T14:33:38;1.00;;;0.70;;
13471;SDS011;6808;49.444;11.034;2024-03-23T14:36:11;2.27;;;1.07;;
13471;SDS011;6808;49.444;11.034;2024-03-23T14:38:37;1.23;;;1.13;;
13471;SDS011;6808;49.444;11.034;2024-03-23T14:41:04;0.80;;;0.70;;
13471;SDS011;6808;49.444;11.034;2024-03-23T14:43:29;1.83;;;1.07;;
13471;SDS011;6808;49.444;11.034;2024-03-23T14:46:13;3.43;;;1.30;;
13471;SDS011;6808;49.444;11.034;2024-03-23T14:48:41;2.67;;;0.83;;
13471;SDS011;6808;49.444;11.034;2024-03-23T14:51:07;1.63;;;0.80;;
13471;SDS011;6808;49.444;11.034;2024-03-23T14:53:34;0.70;;;0.70;;
13471;SDS011;6808;49.444;11.034;2024-03-23T14:56:01;1.77;;;0.80;;
13471;SDS011;6808;49.444;11.034;2024-03-23T14:58:27;1.27;;;0.90;;
13471;SDS011;6808;49.444;11.034;2024-03-23T15:00:53;1.33;;;1.23;;
13471;SDS011;6808;49.444;11.034;2024-03-23T15:03:28;0.87;;;0.87;;
13471;SDS011;6808;49.444;11.034;2024-03-23T15:08:24;1.33;;;1.00;;
13471;SDS011;6808;49.444;11.034;2024-03-23T15:10:50;2.17;;;1.10;;
13471;SDS011;6808;49.444;11.034;2024-03-23T15:13:16;0.93;;;0.90;;
13471;SDS011;6808;49.444;11.034;2024-03-23T15:15:42;0.77;;;0.77;;
13471;SDS011;6808;49.444;11.034;2024-03-23T15:18:13;1.07;;;0.80;;
13471;SDS011;6808;49.444;11.034;2024-03-23T15:20:40;0.70;;;0.70;;
13471;SDS011;6808;49.444;11.034;2024-03-23T15:23:06;0.73;;;0.73;;
13471;SDS011;6808;49.444;11.034;2024-03-23T15:25:33;2.97;;;0.70;;
13471;SDS011;6808;49.444;11.034;2024-03-23T15:27:59;0.70;;;0.70;;
13471;SDS011;6808;49.444;11.034;2024-03-23T15:30:27;0.80;;;0.80;;
13471;SDS011;6808;49.444;11.034;2024-03-23T15:32:53;1.00;;;0.90;;
13471;SDS011;6808;49.444;11.034;2024-03-23T15:35:18;0.70;;;0.70;;
13471;SDS011;6808;49.444;11.034;2024-03-23T15:37:47;1.10;;;0.93;;
13471;SDS011;6808;49.444;11.034;2024-03-23T15:40:13;0.73;;;0.73;;
13471;SDS011;6808;49.444;11.034;2024-03-23T15:42:38;1.20;;;0.87;;
13471;SDS011;6808;49.444;11.034;2024-03-23T15:45:07;0.60;;;0.60;;
13471;SDS011;6808;49.444;11.034;2024-03-23T15:47:34;0.63;;;0.63;;
13471;SDS011;6808;49.444;11.034;2024-03-23T15:50:00;1.40;;;0.80;;
13471;SDS011;6808;49.444;11.034;2024-03-23T15:52:28;1.50;;;0.70;;
13471;SDS011;6808;49.444;11.034;2024-03-23T15:54:54;1.27;;;0.70;;